Airfield :







YOU CAN JOIN US ON...

 
LOGIN :

Register | Disclaimer

   EN    FR    IT 

 









Legend :    VFR   Marginal VFR   IFR   Intensive IFR   Very Intensive IFR
Visi :
Ceiling :
>= 8 km
>= 3000ft
5 to 8 km
1000 to 3000 ft
1500m to 5 km
500 to 1000 ft
800 to 1500m
200 to 500 ft
< 800m
< 200 ft
Symbols :   Thunderstorms  Fog  Heavy snow  Heavy precipitations  Wind > 20 kt






- Airport Elevation : 342 ft


KCON - Concord Municipal

CURRENT METAR :
  • 180551Z AUTO 00000KT 10SM CLR M07/M13 A3048 RMK AO2 SLP325 T10721128 11017 21078 53019

EXPIRED METARs :
  • 180451Z AUTO 36004KT 10SM CLR M06/M13 A3045 RMK AO2 SLP315 T10611133 400331078
  • 180351Z AUTO 03003KT 10SM CLR M06/M13 A3043 RMK AO2 SLP309 T10561128

TAF KCON
Valid from the 18 at 06:00 until the 19 at 06:00 UTC


180539Z 1806/1906 00000KT P6SM BKN150
FM181400 VRB04KT P6SM OVC035
FM181600 10006KT 4SM -SN OVC025
FM181900 12007KT 1/2SM SN OVC010
FM182100 13006KT 1 1/2SM -SNPL OVC008
FM190400 VRB03KT P6SM OVC020 WS020/26035KT



MET'MAP, your aeronautical weather chart ! - Copyright ORBIFLY December 2007 - Disclaimer

ORBIFLY MET'MAP TEAM :

Programming & Development : Alexandra Zaïnal
Concept & original design : Baudouin d'Aumeries
Assistance for programming : Marc-Olivier Méhu
Technical & hardware support : Manuel Goepfert

Contact : metmap@orbifly.com




SOURCES & CREDITS :

   NOAA